Time;durP1;ratioP1;P1;durP2;ratioP2;P2;SDS_P1;SDS_P2;PMS_P1;PMS_P2;Temp;Humidity;BMP_temperature;BMP_pressure;BME280_temperature;BME280_humidity;BME280_pressure;Samples;Min_cycle;Max_cycle;Signal;HPM_P1;HPM_P2
2022/02/24 00:00:23;;;;;;;33.48;22.02;;;17.80;81.80;;;;;;1838573;77;21634;-76
2022/02/24 00:02:54;;;;;;;36.48;24.30;;;17.80;81.80;;;;;;1894431;74;21099;-74
2022/02/24 00:05:27;;;;;;;31.42;20.48;;;17.80;82.30;;;;;;1887736;74;21131;-74
2022/02/24 00:08:01;;;;;;;33.02;20.62;;;17.80;81.70;;;;;;1857026;77;21159;-74
2022/02/24 00:10:30;;;;;;;34.05;21.55;;;17.90;81.80;;;;;;1893622;74;21203;-74
2022/02/24 00:13:04;;;;;;;34.03;22.52;;;17.90;82.00;;;;;;1858917;77;21139;-74
2022/02/24 00:15:35;;;;;;;33.23;21.68;;;17.90;82.90;;;;;;1892069;74;21147;-76
2022/02/24 00:18:07;;;;;;;32.83;21.48;;;18.00;82.90;;;;;;1859612;77;21212;-72
2022/02/24 00:20:37;;;;;;;32.35;20.57;;;18.00;82.60;;;;;;1889222;75;21154;-74
2022/02/24 00:23:08;;;;;;;31.07;19.40;;;18.10;82.40;;;;;;1892581;75;21688;-73
2022/02/24 00:25:39;;;;;;;31.07;20.90;;;18.10;82.00;;;;;;1882376;74;21123;-76
2022/02/24 00:28:10;;;;;;;34.67;21.68;;;18.20;82.10;;;;;;1855622;77;21198;-73
2022/02/24 00:30:40;;;;;;;34.00;21.95;;;18.30;81.80;;;;;;1888296;74;21220;-73
2022/02/24 00:33:11;;;;;;;29.10;21.10;;;18.40;81.90;;;;;;1852231;77;21156;-74
2022/02/24 00:35:41;;;;;;;31.73;21.60;;;18.40;80.40;;;;;;1892466;74;21381;-86
2022/02/24 00:38:12;;;;;;;33.83;20.15;;;18.40;80.10;;;;;;1879938;75;21145;-86
2022/02/24 00:40:42;;;;;;;32.78;20.48;;;18.30;80.00;;;;;;1894745;75;21155;-86
2022/02/24 00:43:13;;;;;;;31.82;20.68;;;18.30;79.80;;;;;;1846202;77;21244;-85
2022/02/24 00:45:44;;;;;;;33.42;20.52;;;18.30;79.70;;;;;;1896484;75;21225;-85
2022/02/24 00:48:15;;;;;;;32.73;20.77;;;18.30;79.90;;;;;;1858867;77;21163;-87
2022/02/24 00:50:46;;;;;;;30.85;20.12;;;18.20;79.90;;;;;;1897323;75;21121;-87
2022/02/24 00:53:16;;;;;;;30.02;19.95;;;18.30;79.60;;;;;;1897090;75;21115;-86
2022/02/24 00:55:47;;;;;;;28.87;19.25;;;18.30;79.50;;;;;;1873255;75;21146;-87
2022/02/24 00:58:18;;;;;;;33.40;19.42;;;18.30;78.50;;;;;;1889216;76;21397;-86
2022/02/24 01:00:49;;;;;;;33.53;20.30;;;18.30;78.60;;;;;;1894494;76;21147;-86
2022/02/24 01:03:20;;;;;;;32.30;20.30;;;18.40;78.60;;;;;;1887877;76;21155;-86
2022/02/24 01:05:51;;;;;;;28.35;19.27;;;18.40;78.50;;;;;;1895574;75;21224;-86
2022/02/24 01:08:22;;;;;;;28.45;18.80;;;18.50;78.90;;;;;;1889560;76;21187;-86
2022/02/24 01:10:53;;;;;;;29.23;19.32;;;18.50;78.80;;;;;;1891879;75;21099;-87
2022/02/24 01:13:25;;;;;;;27.00;18.50;;;18.60;78.30;;;;;;1889229;76;21083;-87
2022/02/24 01:15:56;;;;;;;30.12;18.92;;;18.70;77.40;;;;;;1823615;78;21440;-88
2022/02/24 01:18:29;;;;;;;29.90;18.75;;;18.70;77.10;;;;;;1831752;78;21636;-87
2022/02/24 01:20:59;;;;;;;28.60;18.42;;;18.60;77.10;;;;;;1831770;78;21239;-87
2022/02/24 01:23:30;;;;;;;32.42;18.32;;;18.70;76.80;;;;;;1831884;78;21194;-87
2022/02/24 01:26:01;;;;;;;27.87;17.27;;;18.70;76.70;;;;;;1831504;78;21204;-87
2022/02/24 01:28:31;;;;;;;26.52;17.20;;;18.70;76.70;;;;;;1874845;76;21182;-87
2022/02/24 01:31:02;;;;;;;22.58;16.55;;;18.80;76.80;;;;;;1893883;76;21165;-88
2022/02/24 01:33:33;;;;;;;25.35;17.15;;;18.90;75.80;;;;;;1884416;76;21119;-88
2022/02/24 01:36:03;;;;;;;21.55;14.98;;;19.00;74.70;;;;;;1875748;76;21123;-86
2022/02/24 01:38:35;;;;;;;24.95;15.32;;;19.00;74.30;;;;;;1890366;76;21557;-86
2022/02/24 01:41:06;;;;;;;19.57;14.05;;;18.90;74.40;;;;;;1880959;76;21593;-88
2022/02/24 01:43:36;;;;;;;23.38;15.43;;;18.90;74.80;;;;;;1823041;78;21265;-88
2022/02/24 01:46:07;;;;;;;25.30;16.05;;;18.90;74.30;;;;;;1892882;76;21142;-87
2022/02/24 01:48:38;;;;;;;20.95;15.32;;;18.90;74.20;;;;;;1881086;76;21130;-88
2022/02/24 01:51:10;;;;;;;23.65;15.75;;;18.90;74.30;;;;;;1828849;78;21138;-87
2022/02/24 01:53:41;;;;;;;22.50;15.78;;;19.00;74.40;;;;;;1869188;76;21154;-87
2022/02/24 01:56:13;;;;;;;22.37;14.95;;;19.00;74.30;;;;;;1870017;76;21279;-87
2022/02/24 01:58:44;;;;;;;20.95;14.23;;;19.10;74.20;;;;;;1885811;75;21189;-70
2022/02/24 02:01:15;;;;;;;31.05;14.95;;;19.10;74.30;;;;;;1849566;77;21174;-70
2022/02/24 02:03:46;;;;;;;21.68;14.33;;;19.20;72.40;;;;;;1874565;75;21076;-71
2022/02/24 02:06:19;;;;;;;26.00;14.90;;;19.30;72.00;;;;;;1851087;75;21068;-71
2022/02/24 02:08:51;;;;;;;27.22;15.70;;;19.40;71.30;;;;;;1887278;75;21150;-72
2022/02/24 02:11:22;;;;;;;21.60;14.03;;;19.40;72.00;;;;;;1882799;74;21540;-72
2022/02/24 02:13:52;;;;;;;24.67;15.53;;;19.40;71.30;;;;;;1851580;76;21143;-72
2022/02/24 02:16:23;;;;;;;22.07;14.58;;;19.50;70.80;;;;;;1896963;75;21088;-72
2022/02/24 02:18:54;;;;;;;23.02;13.78;;;19.50;70.80;;;;;;1860198;76;21134;-72
2022/02/24 02:21:25;;;;;;;21.07;14.60;;;19.50;70.80;;;;;;1910163;74;21112;-72
2022/02/24 02:23:56;;;;;;;22.13;14.58;;;19.60;71.10;;;;;;1895676;75;21271;-72
2022/02/24 02:26:26;;;;;;;22.05;14.80;;;19.60;71.50;;;;;;1852076;76;21218;-71
2022/02/24 02:28:57;;;;;;;24.27;14.95;;;19.70;71.50;;;;;;1895764;75;21115;-71
2022/02/24 02:31:29;;;;;;;22.70;14.58;;;19.80;71.10;;;;;;1859908;77;21145;-72
2022/02/24 02:34:02;;;;;;;22.37;15.13;;;19.80;70.80;;;;;;1895126;75;21174;-72
2022/02/24 02:36:33;;;;;;;20.70;14.23;;;19.90;71.00;;;;;;1851786;75;21671;-71
2022/02/24 02:39:08;;;;;;;18.35;13.58;;;20.00;70.20;;;;;;1896264;74;21127;-71
2022/02/24 02:41:40;;;;;;;21.35;14.33;;;20.10;70.00;;;;;;1858574;77;21195;-72
2022/02/24 02:44:13;;;;;;;20.10;13.20;;;20.20;70.00;;;;;;1891108;75;21185;-71
2022/02/24 02:46:45;;;;;;;23.20;14.18;;;20.30;69.90;;;;;;1886620;74;21607;-70
2022/02/24 02:49:16;;;;;;;18.98;13.93;;;20.40;69.90;;;;;;1883604;75;21170;-71
2022/02/24 02:51:47;;;;;;;20.85;13.83;;;20.50;69.60;;;;;;1848910;77;21150;-72
2022/02/24 02:54:17;;;;;;;20.55;13.00;;;20.60;69.30;;;;;;1898346;74;21137;-72
2022/02/24 02:56:48;;;;;;;23.20;13.58;;;20.70;69.80;;;;;;1905408;75;21181;-72
2022/02/24 02:59:19;;;;;;;24.25;14.07;;;20.80;69.90;;;;;;1875107;76;21177;-72
2022/02/24 03:01:52;;;;;;;17.98;13.08;;;20.80;68.90;;;;;;1884700;75;21080;-70
2022/02/24 03:04:24;;;;;;;21.52;13.80;;;20.90;69.10;;;;;;1897837;74;21083;-71
2022/02/24 03:06:54;;;;;;;19.02;13.25;;;21.00;68.90;;;;;;1884634;76;21233;-70
2022/02/24 03:09:25;;;;;;;21.23;13.53;;;21.00;68.60;;;;;;1903038;75;21184;-71
2022/02/24 03:11:56;;;;;;;19.23;13.62;;;21.10;68.80;;;;;;1885267;74;21155;-71
2022/02/24 03:14:26;;;;;;;18.92;12.98;;;21.10;67.70;;;;;;1892318;75;21084;-71
2022/02/24 03:16:57;;;;;;;17.55;12.33;;;21.20;67.00;;;;;;1889562;75;21131;-71
2022/02/24 03:19:28;;;;;;;21.70;13.28;;;21.30;66.10;;;;;;1884764;75;21584;-71
2022/02/24 03:21:59;;;;;;;17.92;12.00;;;21.40;66.00;;;;;;1894246;76;21591;-72
2022/02/24 03:24:30;;;;;;;19.40;12.33;;;21.50;66.00;;;;;;1897527;75;21138;-71
2022/02/24 03:27:01;;;;;;;19.80;12.20;;;21.60;64.80;;;;;;1892015;74;21138;-70
2022/02/24 03:29:32;;;;;;;17.98;12.43;;;21.70;65.40;;;;;;1862148;77;21227;-70
2022/02/24 03:32:05;;;;;;;16.73;11.28;;;21.80;64.00;;;;;;1893631;75;21166;-70
2022/02/24 03:34:36;;;;;;;17.02;11.40;;;21.90;63.40;;;;;;1891093;76;21075;-71
2022/02/24 03:37:08;;;;;;;19.45;12.18;;;21.90;64.10;;;;;;1884586;75;21830;-70
2022/02/24 03:39:38;;;;;;;16.50;11.08;;;22.00;63.80;;;;;;1905254;75;21152;-71
2022/02/24 03:42:10;;;;;;;16.37;11.18;;;22.10;62.70;;;;;;1869939;76;21150;-71
2022/02/24 03:44:40;;;;;;;17.40;11.18;;;22.30;62.50;;;;;;1906947;74;21118;-71
2022/02/24 03:47:11;;;;;;;19.20;11.18;;;22.40;62.60;;;;;;1902457;74;21215;-71
2022/02/24 03:49:43;;;;;;;16.25;10.43;;;22.50;61.80;;;;;;1897209;75;21126;-71
2022/02/24 03:52:14;;;;;;;17.07;10.80;;;22.60;62.00;;;;;;1878460;76;21131;-71
2022/02/24 03:54:46;;;;;;;15.65;10.72;;;22.60;62.20;;;;;;1893056;75;21617;-71
2022/02/24 03:57:18;;;;;;;14.45;10.13;;;22.70;61.10;;;;;;1888196;74;21115;-71
2022/02/24 03:59:49;;;;;;;17.05;10.75;;;22.80;61.10;;;;;;1845972;77;21124;-70
2022/02/24 04:02:20;;;;;;;15.80;11.08;;;23.00;60.80;;;;;;1914369;74;21126;-70
2022/02/24 04:04:51;;;;;;;16.32;11.18;;;23.10;60.30;;;;;;1894171;75;21115;-72
2022/02/24 04:07:22;;;;;;;17.65;11.30;;;23.30;60.00;;;;;;1857269;76;21201;-71
2022/02/24 04:09:54;;;;;;;19.17;10.50;;;23.30;59.80;;;;;;1895778;74;21605;-70
2022/02/24 04:12:25;;;;;;;15.25;10.50;;;23.40;59.60;;;;;;1878766;75;21238;-71
2022/02/24 04:14:58;;;;;;;15.85;10.93;;;23.50;59.70;;;;;;1887251;74;21162;-72
2022/02/24 04:17:30;;;;;;;16.80;10.23;;;23.60;59.10;;;;;;1886256;75;21113;-72
2022/02/24 04:20:00;;;;;;;18.82;10.00;;;23.60;59.00;;;;;;1892271;74;21193;-72
2022/02/24 04:22:31;;;;;;;14.95;10.53;;;23.60;59.40;;;;;;1839008;77;21214;-72
2022/02/24 04:25:03;;;;;;;14.05;10.08;;;23.70;59.40;;;;;;1899807;75;21539;-73
2022/02/24 04:27:34;;;;;;;16.12;10.95;;;23.70;59.00;;;;;;1853604;76;21131;-73
2022/02/24 04:30:06;;;;;;;17.82;10.18;;;23.80;59.00;;;;;;1879580;75;21574;-71
2022/02/24 04:32:37;;;;;;;14.63;10.35;;;23.90;59.10;;;;;;1880714;75;21657;-71
2022/02/24 04:35:10;;;;;;;16.35;10.82;;;24.00;59.40;;;;;;1883535;74;21586;-70
2022/02/24 04:37:41;;;;;;;15.60;10.03;;;24.20;58.30;;;;;;1881128;74;21146;-71
2022/02/24 04:40:15;;;;;;;16.05;11.15;;;24.40;59.20;;;;;;1878115;75;21563;-71
2022/02/24 04:42:47;;;;;;;16.45;10.60;;;24.40;58.50;;;;;;1889539;75;21658;-71
2022/02/24 04:45:18;;;;;;;14.35;10.53;;;24.50;57.90;;;;;;1881871;75;21558;-70
2022/02/24 04:47:50;;;;;;;16.25;10.88;;;24.60;58.40;;;;;;1890143;74;21091;-71
2022/02/24 04:50:22;;;;;;;14.25;10.55;;;24.60;57.80;;;;;;1900618;74;21104;-69
2022/02/24 04:52:53;;;;;;;15.43;10.78;;;24.70;57.10;;;;;;1896279;75;21087;-71
2022/02/24 04:55:25;;;;;;;17.67;10.03;;;24.70;56.90;;;;;;1837910;75;21702;-70
2022/02/24 04:57:57;;;;;;;13.08;10.03;;;24.70;57.10;;;;;;1881220;75;21168;-70
2022/02/24 05:00:28;;;;;;;14.05;10.32;;;24.70;57.20;;;;;;1865639;77;21657;-70
2022/02/24 05:03:00;;;;;;;15.43;10.58;;;24.80;56.80;;;;;;1854622;76;21142;-71
2022/02/24 05:05:32;;;;;;;14.28;10.20;;;24.80;57.50;;;;;;1861212;77;21080;-71
2022/02/24 05:08:05;;;;;;;12.73;9.70;;;24.90;57.50;;;;;;1860674;77;21622;-71
2022/02/24 05:10:36;;;;;;;14.95;10.48;;;25.10;57.10;;;;;;1853264;75;21629;-72
2022/02/24 05:13:08;;;;;;;13.58;9.83;;;25.10;56.90;;;;;;1856288;77;21119;-71
2022/02/24 05:15:41;;;;;;;14.98;10.25;;;25.30;57.20;;;;;;1854750;77;21535;-71
2022/02/24 05:18:12;;;;;;;14.28;10.10;;;25.40;56.30;;;;;;1848641;77;21638;-70
2022/02/24 05:20:44;;;;;;;15.78;10.95;;;25.40;55.90;;;;;;1857268;77;21734;-70
2022/02/24 05:23:15;;;;;;;13.90;10.30;;;25.50;56.50;;;;;;1857193;77;21157;-72
2022/02/24 05:25:47;;;;;;;18.85;11.43;;;25.50;55.70;;;;;;1885046;74;21131;-72
2022/02/24 05:28:18;;;;;;;15.18;10.80;;;25.60;55.30;;;;;;1886501;75;21121;-71
2022/02/24 05:30:58;;;;;;;12.73;10.25;;;25.70;55.40;;;;;;1852094;77;21072;-71
2022/02/24 05:33:23;;;;;;;15.88;10.82;;;25.70;54.60;;;;;;1825849;77;21743;-71
2022/02/24 05:35:55;;;;;;;14.95;11.15;;;25.70;55.30;;;;;;1884671;76;21803;-71
2022/02/24 05:38:26;;;;;;;14.83;10.98;;;25.80;54.90;;;;;;1898334;74;21091;-69
2022/02/24 05:40:58;;;;;;;20.80;11.33;;;25.90;54.90;;;;;;1895594;74;21142;-70
2022/02/24 05:43:30;;;;;;;16.10;10.48;;;25.90;55.30;;;;;;1860566;77;21246;-71
2022/02/24 05:46:01;;;;;;;15.45;10.60;;;25.90;54.60;;;;;;1889084;76;21252;-69
2022/02/24 05:48:33;;;;;;;16.10;10.53;;;25.90;55.00;;;;;;1895275;74;21267;-70
2022/02/24 05:51:04;;;;;;;14.43;9.68;;;25.90;55.00;;;;;;1860095;77;21119;-70
2022/02/24 05:53:35;;;;;;;15.23;10.00;;;25.90;55.20;;;;;;1894316;76;21158;-71
2022/02/24 05:56:07;;;;;;;13.83;10.18;;;26.00;55.00;;;;;;1893429;74;21122;-70
2022/02/24 05:58:39;;;;;;;12.65;9.35;;;26.00;55.10;;;;;;1848737;75;21203;-70
2022/02/24 06:01:10;;;;;;;14.00;9.60;;;26.10;55.20;;;;;;1885772;74;21182;-71
2022/02/24 06:03:41;;;;;;;15.18;9.13;;;26.20;54.70;;;;;;1846406;76;21198;-71
2022/02/24 06:06:12;;;;;;;13.03;9.68;;;26.20;54.30;;;;;;1894631;75;21539;-71
2022/02/24 06:08:43;;;;;;;12.58;8.65;;;26.20;54.70;;;;;;1855122;76;21217;-71
2022/02/24 06:11:14;;;;;;;14.55;10.30;;;26.20;54.70;;;;;;1894122;75;21131;-71
2022/02/24 06:13:45;;;;;;;14.05;10.05;;;26.20;54.80;;;;;;1888955;75;21590;-71
2022/02/24 06:16:15;;;;;;;16.23;9.68;;;26.30;55.20;;;;;;1859303;76;21159;-71
2022/02/24 06:18:47;;;;;;;11.95;9.90;;;26.40;54.40;;;;;;1893184;74;21178;-72
2022/02/24 06:21:17;;;;;;;17.82;10.13;;;26.40;54.50;;;;;;1892288;75;21212;-71
2022/02/24 06:23:48;;;;;;;13.93;9.75;;;26.40;54.60;;;;;;1850378;76;21622;-71
2022/02/24 06:26:19;;;;;;;13.53;9.15;;;26.40;54.10;;;;;;1881765;74;21167;-71
2022/02/24 06:28:49;;;;;;;13.85;9.98;;;26.40;54.90;;;;;;1856560;77;21123;-71
2022/02/24 06:31:20;;;;;;;14.40;10.40;;;26.50;54.40;;;;;;1891777;75;21672;-71
2022/02/24 06:33:51;;;;;;;14.35;10.55;;;26.50;54.80;;;;;;1860260;75;21151;-71
2022/02/24 06:36:22;;;;;;;14.38;10.15;;;26.50;54.50;;;;;;1889238;74;21135;-72
2022/02/24 06:38:52;;;;;;;13.95;10.68;;;26.50;54.50;;;;;;1883685;75;21218;-72
2022/02/24 06:41:24;;;;;;;14.65;10.88;;;26.50;54.80;;;;;;1889381;74;21164;-72
2022/02/24 06:43:56;;;;;;;15.40;9.88;;;26.60;54.90;;;;;;1851165;75;21162;-72
2022/02/24 06:46:27;;;;;;;16.65;11.97;;;26.60;54.40;;;;;;1895908;74;21154;-71
2022/02/24 06:48:58;;;;;;;14.35;11.20;;;26.50;55.00;;;;;;1860736;76;21524;-71
2022/02/24 06:51:29;;;;;;;15.10;10.55;;;26.50;54.70;;;;;;1898018;74;21584;-71
2022/02/24 06:53:59;;;;;;;13.90;11.38;;;26.60;54.70;;;;;;1856358;77;21218;-71
2022/02/24 06:56:30;;;;;;;15.83;11.38;;;26.60;55.00;;;;;;1907537;75;21887;-71
2022/02/24 06:59:01;;;;;;;16.23;11.20;;;26.60;54.50;;;;;;1879490;74;21602;-71
2022/02/24 07:01:32;;;;;;;32.45;20.00;;;26.60;54.80;;;;;;1858137;77;21123;-71
2022/02/24 07:04:05;;;;;;;16.95;12.23;;;26.60;54.90;;;;;;1853464;77;21415;-71
2022/02/24 07:06:36;;;;;;;17.82;12.00;;;26.70;55.10;;;;;;1869747;76;21150;-72
2022/02/24 07:09:06;;;;;;;14.30;11.18;;;26.60;55.30;;;;;;1862697;75;21184;-72
2022/02/24 07:11:37;;;;;;;18.67;10.98;;;26.60;55.40;;;;;;1869242;76;21117;-72
2022/02/24 07:14:08;;;;;;;15.25;11.10;;;26.70;54.60;;;;;;1871963;76;21127;-70
2022/02/24 07:16:39;;;;;;;17.60;11.03;;;26.70;54.70;;;;;;1861839;77;21186;-72
2022/02/24 07:19:10;;;;;;;16.65;10.80;;;26.70;55.10;;;;;;1878708;76;21103;-71
2022/02/24 07:21:42;;;;;;;16.00;10.78;;;26.70;54.80;;;;;;1892113;76;21115;-71
2022/02/24 07:24:12;;;;;;;15.18;10.82;;;26.70;55.50;;;;;;1889790;76;21602;-72
2022/02/24 07:26:43;;;;;;;15.58;10.28;;;26.70;55.40;;;;;;1883905;75;21221;-72
2022/02/24 07:29:14;;;;;;;17.67;10.08;;;26.80;55.10;;;;;;1865929;77;21146;-72
2022/02/24 07:31:45;;;;;;;13.80;10.48;;;26.80;55.00;;;;;;1863410;77;21641;-72
2022/02/24 07:34:15;;;;;;;14.55;10.75;;;26.80;54.90;;;;;;1849919;77;21586;-72
2022/02/24 07:36:46;;;;;;;14.70;10.72;;;26.70;54.70;;;;;;1864008;75;21127;-71
2022/02/24 07:39:36;;;;;;;16.35;11.28;;;26.70;55.10;;;;;;1865750;75;21559;-71
2022/02/24 07:42:07;;;;;;;16.10;10.70;;;26.70;55.20;;;;;;1865874;75;21224;-71
2022/02/24 07:44:38;;;;;;;15.78;10.15;;;26.70;55.00;;;;;;1860114;75;21170;-71
2022/02/24 07:47:08;;;;;;;13.98;9.88;;;26.70;54.80;;;;;;1869901;76;21539;-72
2022/02/24 07:49:40;;;;;;;15.45;11.00;;;26.70;54.60;;;;;;1829479;78;21138;-72
2022/02/24 07:52:11;;;;;;;13.98;10.45;;;26.60;54.80;;;;;;1866426;75;21523;-72
2022/02/24 07:54:42;;;;;;;14.50;11.15;;;26.70;55.00;;;;;;1866882;76;21236;-72
2022/02/24 07:57:13;;;;;;;18.70;12.10;;;26.60;55.00;;;;;;1864115;75;21096;-71
2022/02/24 07:59:44;;;;;;;14.15;10.68;;;26.60;54.80;;;;;;1866599;75;21169;-71
2022/02/24 08:02:14;;;;;;;15.25;10.50;;;26.60;55.10;;;;;;1800213;79;21537;-71
2022/02/24 08:04:45;;;;;;;13.05;10.72;;;26.60;54.70;;;;;;1864417;77;21142;-71
2022/02/24 08:07:17;;;;;;;15.63;11.65;;;26.60;55.50;;;;;;1833966;77;21080;-71
2022/02/24 08:09:47;;;;;;;13.62;10.82;;;26.70;54.90;;;;;;1828770;77;21205;-71
2022/02/24 08:12:39;;;;;;;14.78;10.58;;;26.70;54.90;;;;;;1862904;77;21665;-71
2022/02/24 08:15:10;;;;;;;15.25;11.43;;;26.70;55.50;;;;;;1861467;76;21173;-71
2022/02/24 08:17:42;;;;;;;21.17;12.98;;;26.80;55.10;;;;;;1869856;76;21150;-72
2022/02/24 08:20:13;;;;;;;19.50;12.18;;;26.80;55.60;;;;;;1797669;80;21632;-71
2022/02/24 08:22:47;;;;;;;16.23;11.65;;;26.70;54.30;;;;;;1857861;77;21100;-72
2022/02/24 08:25:20;;;;;;;14.15;10.85;;;26.70;54.20;;;;;;1849975;76;21213;-73
2022/02/24 08:27:51;;;;;;;16.35;11.35;;;26.70;54.80;;;;;;1876775;76;21213;-72
2022/02/24 08:30:23;;;;;;;18.92;12.00;;;26.70;55.10;;;;;;1851654;77;21193;-72
2022/02/24 08:32:54;;;;;;;14.20;10.88;;;26.70;55.60;;;;;;1858208;75;21178;-71
2022/02/24 08:35:26;;;;;;;13.95;11.43;;;26.70;55.10;;;;;;1869451;76;21243;-70
2022/02/24 08:37:58;;;;;;;14.58;11.38;;;26.70;55.40;;;;;;1862265;76;21752;-71
2022/02/24 08:40:29;;;;;;;21.57;12.03;;;26.70;55.10;;;;;;1836350;76;21124;-71
2022/02/24 08:43:01;;;;;;;15.65;11.65;;;26.70;54.90;;;;;;1865202;75;21471;-72
2022/02/24 08:45:34;;;;;;;15.75;11.53;;;26.70;54.10;;;;;;1834599;77;21157;-72
2022/02/24 08:48:05;;;;;;;14.78;11.90;;;26.70;54.10;;;;;;1862172;75;21654;-73
2022/02/24 08:50:39;;;;;;;16.20;12.20;;;26.70;54.00;;;;;;1869030;75;21191;-72
2022/02/24 08:53:10;;;;;;;17.30;11.85;;;26.70;53.90;;;;;;1821677;77;21154;-71
2022/02/24 08:55:40;;;;;;;15.98;11.60;;;26.70;54.80;;;;;;1873782;75;21543;-72
2022/02/24 08:58:11;;;;;;;16.40;12.23;;;26.70;54.40;;;;;;1868873;75;22387;-72
2022/02/24 09:00:47;;;;;;;17.77;12.25;;;26.70;54.20;;;;;;1841835;77;21151;-73
2022/02/24 09:03:15;;;;;;;16.25;12.00;;;26.70;54.20;;;;;;1867584;75;21228;-72
2022/02/24 09:05:46;;;;;;;15.48;11.75;;;26.70;54.40;;;;;;1832793;76;21063;-72
2022/02/24 09:08:17;;;;;;;21.12;12.58;;;26.70;54.70;;;;;;1863637;75;21061;-71
2022/02/24 09:10:48;;;;;;;14.83;11.63;;;26.70;54.30;;;;;;1866450;75;21190;-68
2022/02/24 09:13:19;;;;;;;18.37;12.07;;;26.70;54.00;;;;;;1838591;77;21246;-72
2022/02/24 09:15:50;;;;;;;15.88;12.47;;;26.70;54.50;;;;;;1876554;75;21073;-70
2022/02/24 09:18:21;;;;;;;18.82;11.90;;;26.70;55.10;;;;;;1866855;75;21708;-70
2022/02/24 09:20:51;;;;;;;15.78;11.80;;;26.70;55.60;;;;;;1871386;75;21192;-70
2022/02/24 09:23:22;;;;;;;18.15;12.40;;;26.70;55.20;;;;;;1870215;75;21236;-71
2022/02/24 09:25:53;;;;;;;18.20;12.80;;;26.70;55.00;;;;;;1827193;77;21073;-71
2022/02/24 09:28:24;;;;;;;17.07;13.62;;;26.70;55.10;;;;;;1866606;75;21656;-70
2022/02/24 09:30:55;;;;;;;17.85;12.53;;;26.60;55.00;;;;;;1869845;76;21146;-74
2022/02/24 09:33:27;;;;;;;14.80;11.95;;;26.70;55.10;;;;;;1798115;78;21704;-71
2022/02/24 09:35:58;;;;;;;17.57;12.70;;;26.60;55.00;;;;;;1827974;77;21087;-72
2022/02/24 09:38:28;;;;;;;19.27;13.62;;;26.60;55.40;;;;;;1830109;77;21447;-72
2022/02/24 09:40:59;;;;;;;17.32;13.22;;;26.50;55.60;;;;;;1858832;75;21202;-71
2022/02/24 09:43:34;;;;;;;25.75;13.50;;;26.50;55.00;;;;;;1847350;76;21080;-70
2022/02/24 09:46:07;;;;;;;16.85;12.60;;;26.50;55.00;;;;;;1850681;77;21090;-72
2022/02/24 09:48:43;;;;;;;19.27;13.48;;;26.50;55.10;;;;;;1843483;77;21066;-72
2022/02/24 09:51:15;;;;;;;21.57;13.30;;;26.50;55.30;;;;;;1843737;77;21592;-72
2022/02/24 09:53:48;;;;;;;17.55;13.35;;;26.40;55.40;;;;;;1852066;76;21682;-72
2022/02/24 09:56:21;;;;;;;16.62;13.55;;;26.40;55.60;;;;;;1848887;76;21151;-71
2022/02/24 09:58:52;;;;;;;23.00;13.60;;;26.30;56.00;;;;;;1843103;76;21204;-72
2022/02/24 10:01:23;;;;;;;20.52;14.33;;;26.30;56.30;;;;;;1851457;76;22489;-71
2022/02/24 10:03:57;;;;;;;17.92;13.20;;;26.30;56.40;;;;;;1852770;76;21556;-71
2022/02/24 10:06:30;;;;;;;19.17;14.45;;;26.30;57.10;;;;;;1858399;76;21639;-72
2022/02/24 10:09:01;;;;;;;17.57;14.47;;;26.30;56.70;;;;;;1854108;76;21068;-72
2022/02/24 10:11:34;;;;;;;16.70;13.70;;;26.20;56.70;;;;;;1845992;77;21154;-71
2022/02/24 10:14:07;;;;;;;20.10;14.83;;;26.20;56.60;;;;;;1839580;77;21421;-70
2022/02/24 10:16:40;;;;;;;21.60;15.05;;;26.20;56.90;;;;;;1853693;77;21200;-71
2022/02/24 10:19:13;;;;;;;21.70;15.20;;;26.20;56.70;;;;;;1843009;77;21179;-72
2022/02/24 10:21:43;;;;;;;18.95;14.65;;;26.10;56.90;;;;;;1859074;76;21181;-72
2022/02/24 10:24:17;;;;;;;22.82;17.70;;;26.10;57.00;;;;;;1845758;76;21138;-72
2022/02/24 10:26:47;;;;;;;21.05;14.47;;;26.00;57.30;;;;;;1851384;76;21217;-72
2022/02/24 10:29:22;;;;;;;21.00;14.45;;;26.00;57.20;;;;;;1847567;76;21183;-70
2022/02/24 10:31:50;;;;;;;22.35;14.00;;;26.00;57.50;;;;;;1846589;76;21165;-74
2022/02/24 10:34:21;;;;;;;23.65;14.50;;;26.00;57.30;;;;;;1845780;77;21134;-72
2022/02/24 10:36:52;;;;;;;22.13;15.60;;;26.00;57.20;;;;;;1855885;77;21196;-85
2022/02/24 10:39:23;;;;;;;21.48;15.32;;;25.90;57.60;;;;;;1850914;77;21178;-85
2022/02/24 10:41:59;;;;;;;20.40;14.55;;;25.90;57.70;;;;;;1848690;75;22062;-85
2022/02/24 10:44:33;;;;;;;19.05;14.63;;;25.90;57.50;;;;;;1871020;75;21682;-83
2022/02/24 10:47:04;;;;;;;18.60;14.03;;;25.90;57.70;;;;;;1844117;77;21152;-82
2022/02/24 10:49:37;;;;;;;19.55;13.60;;;25.90;57.60;;;;;;1834412;77;21189;-82
2022/02/24 10:52:10;;;;;;;19.82;14.38;;;25.90;57.90;;;;;;1869323;75;21163;-82
2022/02/24 10:54:42;;;;;;;19.73;14.38;;;25.80;57.90;;;;;;1850150;77;21147;-82
2022/02/24 10:57:17;;;;;;;21.97;14.50;;;25.80;58.00;;;;;;1864413;75;21737;-82
2022/02/24 10:59:49;;;;;;;20.37;15.18;;;25.80;59.10;;;;;;1864316;75;21813;-83
2022/02/24 11:02:22;;;;;;;20.80;14.07;;;25.80;58.60;;;;;;1868300;75;21170;-82
2022/02/24 11:04:54;;;;;;;22.07;14.95;;;25.70;58.60;;;;;;1865108;77;21183;-82
2022/02/24 11:07:25;;;;;;;24.15;15.28;;;25.70;58.80;;;;;;1860767;75;21118;-83
2022/02/24 11:09:58;;;;;;;24.50;15.15;;;25.60;58.90;;;;;;1873515;75;21137;-83
2022/02/24 11:12:30;;;;;;;23.67;15.30;;;25.60;59.10;;;;;;1801788;79;21174;-81
2022/02/24 11:15:02;;;;;;;21.23;14.75;;;25.60;59.40;;;;;;1864073;75;21620;-82
2022/02/24 11:17:33;;;;;;;18.80;13.08;;;25.60;59.60;;;;;;1871310;75;21189;-81
2022/02/24 11:20:04;;;;;;;20.72;14.18;;;25.50;59.40;;;;;;1842450;77;21159;-81
2022/02/24 11:22:36;;;;;;;23.25;14.13;;;25.50;59.50;;;;;;1859593;75;21128;-83
2022/02/24 11:25:09;;;;;;;18.30;13.68;;;25.50;59.60;;;;;;1860084;75;21134;-80
2022/02/24 11:27:42;;;;;;;22.42;14.73;;;25.50;59.60;;;;;;1863899;75;21547;-80
2022/02/24 11:30:17;;;;;;;20.57;13.40;;;25.40;59.80;;;;;;1799679;78;21545;-80
2022/02/24 11:32:48;;;;;;;20.90;12.60;;;25.40;59.80;;;;;;1831962;77;21124;-80
2022/02/24 11:35:22;;;;;;;23.55;13.70;;;25.40;60.00;;;;;;1813786;77;21162;-80
2022/02/24 11:37:56;;;;;;;17.87;12.75;;;25.40;60.20;;;;;;1866066;77;21181;-79
2022/02/24 11:40:28;;;;;;;21.12;13.98;;;25.30;60.30;;;;;;1860010;77;21138;-79
2022/02/24 11:43:01;;;;;;;21.07;13.85;;;25.30;60.60;;;;;;1868526;75;21228;-79
2022/02/24 11:45:35;;;;;;;20.20;14.25;;;25.30;60.70;;;;;;1859173;76;21185;-80
2022/02/24 11:48:09;;;;;;;19.95;13.62;;;25.20;60.90;;;;;;1841551;78;21070;-79
2022/02/24 11:50:42;;;;;;;21.97;13.53;;;25.20;61.20;;;;;;1850492;76;21185;-79
2022/02/24 11:53:15;;;;;;;20.95;14.07;;;25.20;61.40;;;;;;1839813;76;21214;-80
2022/02/24 11:55:48;;;;;;;19.30;13.43;;;25.20;61.60;;;;;;1829279;76;21192;-80
2022/02/24 11:58:19;;;;;;;21.10;13.98;;;;;;;;;;1842892;77;21698;-81
2022/02/24 12:00:51;;;;;;;20.32;13.75;;;;;;;;;;1839754;76;21178;-87
2022/02/24 12:03:32;;;;;;;19.45;14.03;;;;;;;;;;1835592;76;21126;-84
2022/02/24 12:06:03;;;;;;;21.20;13.28;;;;;;;;;;1840829;76;21177;-87
2022/02/24 12:08:34;;;;;;;19.73;14.58;;;;;;;;;;1838725;76;21181;-86
2022/02/24 12:11:06;;;;;;;22.27;13.80;;;;;;;;;;1832699;75;21208;-85
2022/02/24 12:13:36;;;;;;;23.77;14.38;;;;;;;;;;1829933;76;21732;-86
2022/02/24 12:16:07;;;;;;;22.52;13.70;;;;;;;;;;1837787;76;21258;-84
2022/02/24 12:18:38;;;;;;;22.15;14.80;;;;;;;;;;1835174;77;21197;-85
2022/02/24 12:21:09;;;;;;;20.17;14.90;;;;;;;;;;1834392;76;21177;-84
2022/02/24 12:23:39;;;;;;;23.70;15.88;;;;;;;;;;1836937;76;21247;-84
2022/02/24 12:26:10;;;;;;;22.32;15.05;;;;;;;;;;1805111;78;21138;-85
2022/02/24 12:28:40;;;;;;;22.42;16.40;;;;;;;;;;1807743;78;21102;-85
2022/02/24 12:31:12;;;;;;;22.65;16.77;;;;;;;;;;1770256;79;21860;-85
2022/02/24 12:33:43;;;;;;;26.75;16.75;;;;;;;;;;1808187;78;21666;-85
2022/02/24 12:36:13;;;;;;;23.02;17.40;;;;;;;;;;1773506;79;21159;-85
2022/02/24 12:38:43;;;;;;;26.33;17.92;;;;;;;;;;1797082;78;21298;-86
2022/02/24 12:41:13;;;;;;;24.52;16.67;;;;;;;;;;1794666;78;21080;-86
2022/02/24 12:43:43;;;;;;;20.37;15.90;;;;;;;;;;1798878;78;21327;-86
2022/02/24 12:46:13;;;;;;;27.20;16.80;;;;;;;;;;1828337;77;21685;-85
2022/02/24 12:48:43;;;;;;;24.60;16.80;;;;;;;;;;1826162;77;21203;-86
2022/02/24 12:51:13;;;;;;;30.35;18.35;;;;;;;;;;1827881;77;21143;-85
2022/02/24 12:53:44;;;;;;;25.32;17.27;;;;;;;;;;1826337;77;21146;-85
2022/02/24 12:56:15;;;;;;;22.75;17.48;;;;;;;;;;1827887;78;21067;-85